createdAt,value
2019-04-22T00:02:24.485Z,13.60
2019-04-22T00:05:05.781Z,13.50
2019-04-22T00:07:48.311Z,13.60
2019-04-22T00:10:27.553Z,13.60
2019-04-22T00:12:57.760Z,13.50
2019-04-22T00:15:19.500Z,13.40
2019-04-22T00:18:02.963Z,13.40
2019-04-22T00:20:22.424Z,13.30
2019-04-22T00:22:57.827Z,13.30
2019-04-22T00:28:02.421Z,13.30
2019-04-22T00:30:32.539Z,13.20
2019-04-22T00:33:08.104Z,13.30
2019-04-22T00:35:36.653Z,13.30
2019-04-22T00:38:11.200Z,13.30
2019-04-22T00:40:46.173Z,13.30
2019-04-22T00:43:14.132Z,13.20
2019-04-22T00:45:42.860Z,13.20
2019-04-22T00:48:20.669Z,13.10
2019-04-22T00:51:00.156Z,13.20
2019-04-22T00:53:25.342Z,13.10
2019-04-22T00:56:10.939Z,13.10
2019-04-22T01:01:17.524Z,13.20
2019-04-22T01:03:50.341Z,13.20
2019-04-22T01:06:16.169Z,13.10
2019-04-22T01:08:46.558Z,13.00
2019-04-22T01:11:25.158Z,12.90
2019-04-22T01:13:44.251Z,12.90
2019-04-22T01:16:21.651Z,12.80
2019-04-22T01:18:52.184Z,12.80
2019-04-22T01:23:52.287Z,12.70
2019-04-22T01:26:20.289Z,12.70
2019-04-22T01:28:52.913Z,12.70
2019-04-22T01:31:17.193Z,12.60
2019-04-22T01:33:49.757Z,12.60
2019-04-22T01:36:33.888Z,12.50
2019-04-22T01:39:03.836Z,12.40
2019-04-22T01:41:51.709Z,12.30
2019-04-22T01:44:22.898Z,12.30
2019-04-22T01:46:47.700Z,12.20
2019-04-22T01:49:15.480Z,12.10
2019-04-22T01:54:23.374Z,12.10
2019-04-22T01:56:47.298Z,12.10
2019-04-22T01:59:11.050Z,12.00
2019-04-22T02:01:52.515Z,11.90
2019-04-22T02:04:30.413Z,11.80
2019-04-22T02:14:31.578Z,11.70
2019-04-22T02:16:56.941Z,11.60
2019-04-22T02:19:30.450Z,11.70
2019-04-22T02:21:56.579Z,11.70
2019-04-22T02:24:33.694Z,11.70
2019-04-22T02:27:08.900Z,11.70
2019-04-22T02:29:34.696Z,11.70
2019-04-22T02:32:10.309Z,11.70
2019-04-22T02:34:39.984Z,11.60
2019-04-22T02:37:14.683Z,11.50
2019-04-22T02:39:41.143Z,11.40
2019-04-22T02:42:10.790Z,11.40
2019-04-22T02:44:42.632Z,11.40
2019-04-22T02:47:15.575Z,11.50
2019-04-22T02:50:01.990Z,11.50
2019-04-22T02:52:20.430Z,11.40
2019-04-22T03:04:53.329Z,11.30
2019-04-22T03:07:25.993Z,11.30
2019-04-22T03:09:55.415Z,11.30
2019-04-22T03:12:23.676Z,11.30
2019-04-22T03:15:07.434Z,11.30
2019-04-22T03:17:28.623Z,11.10
2019-04-22T03:20:06.253Z,11.00
2019-04-22T03:27:30.068Z,11.00
2019-04-22T03:30:41.987Z,11.00
2019-04-22T03:40:30.432Z,10.70
2019-04-22T03:42:59.704Z,10.80
2019-04-22T03:47:52.812Z,10.80
2019-04-22T04:03:06.424Z,10.40
2019-04-22T04:08:18.366Z,10.40
2019-04-22T04:10:37.772Z,10.50
2019-04-22T04:13:04.210Z,10.40
2019-04-22T04:15:32.784Z,10.50
2019-04-22T04:17:56.970Z,10.50
2019-04-22T04:23:07.943Z,10.50
2019-04-22T04:30:31.256Z,10.40
2019-04-22T04:33:06.841Z,10.30
2019-04-22T04:37:58.866Z,10.20
2019-04-22T04:40:45.606Z,10.20
2019-04-22T04:45:46.162Z,10.30
2019-04-22T04:48:14.437Z,10.20
2019-04-22T04:50:58.638Z,10.30
2019-04-22T04:53:24.401Z,10.20
2019-04-22T04:55:46.834Z,10.20
2019-04-22T04:58:36.653Z,10.30
2019-04-22T05:03:32.688Z,10.30
2019-04-22T05:08:39.023Z,10.40
2019-04-22T05:13:33.589Z,10.50
2019-04-22T05:16:13.442Z,10.50
2019-04-22T05:18:29.349Z,10.60
2019-04-22T05:21:09.670Z,10.60
2019-04-22T05:23:30.430Z,10.60
2019-04-22T05:25:57.934Z,10.60
2019-04-22T05:28:29.935Z,10.60
2019-04-22T05:31:01.544Z,10.60
2019-04-22T05:33:33.038Z,10.70
2019-04-22T05:36:06.067Z,10.70
2019-04-22T05:38:40.205Z,10.80
2019-04-22T05:41:02.361Z,10.90
2019-04-22T05:43:35.568Z,10.80
2019-04-22T05:46:02.919Z,10.90
2019-04-22T05:48:38.058Z,11.00
2019-04-22T05:51:14.645Z,11.10
2019-04-22T05:53:41.867Z,11.20
2019-04-22T05:56:22.104Z,11.20
2019-04-22T05:58:47.899Z,11.20
2019-04-22T06:03:50.816Z,11.40
2019-04-22T06:08:48.263Z,11.40
2019-04-22T06:11:29.556Z,11.50
2019-04-22T06:13:50.164Z,11.60
2019-04-22T06:16:31.338Z,11.60
2019-04-22T06:19:05.736Z,11.60
2019-04-22T06:21:35.701Z,11.70
2019-04-22T06:24:10.595Z,11.80
2019-04-22T06:26:48.993Z,11.80
2019-04-22T06:29:09.199Z,11.90
2019-04-22T06:31:49.851Z,11.90
2019-04-22T06:34:10.778Z,12.00
2019-04-22T06:36:45.081Z,12.00
2019-04-22T06:39:17.344Z,12.10
2019-04-22T06:46:47.877Z,12.30
2019-04-22T06:49:20.978Z,12.40
2019-04-22T06:51:46.798Z,12.40
2019-04-22T06:54:22.081Z,12.50
2019-04-22T06:56:50.687Z,12.60
2019-04-22T06:59:18.935Z,12.70
2019-04-22T07:01:48.633Z,12.80
2019-04-22T07:04:16.689Z,12.80
2019-04-22T07:06:58.098Z,12.90
2019-04-22T07:11:52.856Z,13.10
2019-04-22T07:14:22.866Z,13.20
2019-04-22T07:16:56.163Z,13.30
2019-04-22T07:19:28.152Z,13.40
2019-04-22T07:21:57.274Z,13.50
2019-04-22T07:24:40.515Z,13.60
2019-04-22T07:27:04.714Z,13.70
2019-04-22T07:29:32.809Z,13.80
2019-04-22T07:32:06.790Z,13.90
2019-04-22T07:34:33.131Z,14.00
2019-04-22T07:37:22.841Z,14.10
2019-04-22T07:39:35.261Z,14.20
2019-04-22T07:42:10.446Z,14.30
2019-04-22T07:44:38.628Z,14.50
2019-04-22T07:47:15.204Z,14.60
2019-04-22T07:52:09.825Z,14.70
2019-04-22T07:54:43.394Z,14.80
2019-04-22T07:57:24.422Z,14.80
2019-04-22T07:59:50.470Z,15.00
2019-04-22T08:02:14.589Z,15.00
2019-04-22T08:05:04.002Z,15.20
2019-04-22T08:07:17.754Z,15.20
2019-04-22T08:12:20.289Z,15.40
2019-04-22T08:14:53.626Z,15.40
2019-04-22T08:17:49.913Z,15.60
2019-04-22T08:19:57.785Z,15.70
2019-04-22T08:22:21.153Z,15.80
2019-04-22T08:24:56.148Z,15.90
2019-04-22T08:27:25.612Z,16.00
2019-04-22T08:32:29.909Z,16.10
2019-04-22T08:35:04.596Z,16.20
2019-04-22T08:37:47.630Z,16.30
2019-04-22T08:40:07.598Z,16.40
2019-04-22T08:42:43.413Z,16.40
2019-04-22T08:45:09.350Z,16.50
2019-04-22T08:47:39.550Z,16.60
2019-04-22T08:50:09.052Z,16.60
2019-04-22T08:52:40.663Z,16.60
2019-04-22T08:55:11.199Z,16.70
2019-04-22T09:00:08.443Z,16.90
2019-04-22T09:02:46.787Z,17.00
2019-04-22T09:05:22.824Z,17.10
2019-04-22T09:07:46.526Z,17.20
2019-04-22T09:10:17.168Z,17.20
2019-04-22T09:12:57.878Z,17.30
2019-04-22T09:15:21.882Z,17.40
2019-04-22T09:20:20.622Z,17.60
2019-04-22T09:22:53.718Z,17.60
2019-04-22T09:25:27.466Z,17.80
2019-04-22T09:28:10.580Z,17.90
2019-04-22T09:30:30.687Z,18.00
2019-04-22T09:33:06.656Z,18.00
2019-04-22T09:35:31.518Z,18.00
2019-04-22T09:38:12.702Z,18.10
2019-04-22T09:40:33.213Z,18.30
2019-04-22T09:43:03.230Z,18.30
2019-04-22T09:45:35.167Z,18.40
2019-04-22T09:48:10.476Z,18.50
2019-04-22T09:50:43.061Z,18.60
2019-04-22T09:53:13.395Z,18.70
2019-04-22T09:55:41.654Z,18.70
2019-04-22T09:58:09.531Z,18.80
2019-04-22T10:01:03.068Z,18.90
2019-04-22T10:03:32.109Z,18.90
2019-04-22T10:06:11.880Z,18.90
2019-04-22T10:08:35.680Z,19.00
2019-04-22T10:11:06.175Z,19.20
2019-04-22T10:13:34.732Z,19.20
2019-04-22T10:16:03.032Z,19.20
2019-04-22T10:18:41.725Z,19.30
2019-04-22T10:21:08.687Z,19.30
2019-04-22T10:23:41.653Z,19.30
2019-04-22T10:26:14.906Z,19.40
2019-04-22T10:28:44.702Z,19.50
2019-04-22T10:31:21.824Z,19.50
2019-04-22T10:33:38.251Z,19.60
2019-04-22T10:35:49.652Z,19.70
2019-04-22T10:38:19.044Z,19.80
2019-04-22T10:40:48.414Z,19.80
2019-04-22T10:43:19.073Z,20.00
2019-04-22T10:45:50.185Z,20.00
2019-04-22T10:48:19.818Z,20.10
2019-04-22T10:50:50.523Z,20.10
2019-04-22T10:53:21.559Z,20.20
2019-04-22T10:55:51.754Z,20.30
2019-04-22T10:58:22.863Z,20.30
2019-04-22T11:00:54.130Z,20.50
2019-04-22T11:03:24.532Z,20.50
2019-04-22T11:05:54.464Z,20.50
2019-04-22T11:08:32.586Z,20.60
2019-04-22T11:11:12.266Z,20.80
2019-04-22T11:13:26.545Z,20.90
2019-04-22T11:15:56.168Z,20.90
2019-04-22T11:18:25.791Z,21.00
2019-04-22T11:20:55.819Z,21.10
2019-04-22T11:23:26.880Z,21.10
2019-04-22T11:25:57.617Z,21.20
2019-04-22T11:28:27.710Z,21.30
2019-04-22T11:30:58.726Z,21.40
2019-04-22T11:33:28.167Z,21.50
2019-04-22T11:35:57.953Z,21.50
2019-04-22T11:38:28.733Z,21.60
2019-04-22T11:41:01.124Z,21.70
2019-04-22T11:43:30.460Z,21.70
2019-04-22T11:46:00.668Z,21.90
2019-04-22T11:48:31.166Z,21.90
2019-04-22T11:51:01.942Z,22.00
2019-04-22T11:53:31.395Z,22.10
2019-04-22T11:56:00.793Z,22.10
2019-04-22T11:58:30.838Z,22.20
2019-04-22T12:01:01.076Z,22.40
2019-04-22T12:03:31.630Z,22.50
2019-04-22T12:06:02.079Z,22.50
2019-04-22T12:08:31.870Z,22.60
2019-04-22T12:11:04.358Z,22.60
2019-04-22T12:13:33.887Z,22.80
2019-04-22T12:16:05.213Z,22.80
2019-04-22T12:18:35.397Z,22.90
2019-04-22T12:21:05.432Z,22.90
2019-04-22T12:23:35.268Z,23.10
2019-04-22T12:26:10.858Z,23.20
2019-04-22T12:28:37.061Z,23.30
2019-04-22T12:31:06.447Z,23.60
2019-04-22T12:33:37.132Z,23.70
2019-04-22T12:36:10.804Z,23.80
2019-04-22T12:38:41.815Z,23.70
2019-04-22T12:41:12.212Z,23.90
2019-04-22T12:43:43.110Z,23.90
2019-04-22T12:46:12.615Z,24.10
2019-04-22T12:48:43.242Z,24.50
2019-04-22T12:51:13.271Z,24.70
2019-04-22T12:53:44.533Z,24.90
2019-04-22T12:56:15.412Z,25.20
2019-04-22T12:58:45.852Z,25.90
2019-04-22T13:01:16.915Z,26.40
2019-04-22T13:03:46.559Z,26.30
2019-04-22T13:06:17.333Z,26.50
2019-04-22T13:08:47.679Z,26.50
2019-04-22T13:11:21.353Z,26.80
2019-04-22T13:13:49.324Z,27.20
2019-04-22T13:16:20.602Z,27.30
2019-04-22T13:18:58.710Z,27.20
2019-04-22T13:21:22.763Z,27.20
2019-04-22T13:23:53.096Z,27.80
2019-04-22T13:26:23.164Z,28.20
2019-04-22T13:28:52.691Z,28.40
2019-04-22T13:31:22.794Z,28.10
2019-04-22T13:33:55.254Z,27.80
2019-04-22T13:36:25.571Z,28.40
2019-04-22T13:38:55.230Z,29.10
2019-04-22T13:41:33.935Z,29.00
2019-04-22T13:43:57.627Z,29.20
2019-04-22T13:46:31.282Z,30.10
2019-04-22T13:54:01.901Z,30.30
2019-04-22T13:56:55.519Z,30.90
2019-04-22T13:59:18.433Z,31.50
2019-04-22T14:02:00.802Z,30.90
2019-04-22T14:04:34.698Z,31.20
2019-04-22T14:07:05.151Z,31.10
2019-04-22T14:09:35.990Z,31.30
2019-04-22T14:12:07.629Z,31.40
2019-04-22T14:14:39.182Z,31.70
2019-04-22T14:17:09.112Z,31.40
2019-04-22T14:19:39.132Z,32.10
2019-04-22T14:22:09.618Z,31.50
2019-04-22T14:24:40.650Z,31.80
2019-04-22T14:27:22.338Z,32.00
2019-04-22T14:29:41.959Z,31.90
2019-04-22T14:34:42.823Z,31.80
2019-04-22T14:37:12.244Z,31.70
2019-04-22T14:39:42.228Z,31.80
2019-04-22T14:42:28.470Z,31.60
2019-04-22T14:44:12.632Z,31.90
2019-04-22T14:45:18.961Z,31.90
2019-04-22T14:47:43.045Z,31.90
2019-04-22T14:50:06.291Z,32.00
2019-04-22T14:52:41.193Z,31.80
2019-04-22T14:55:00.891Z,31.90
2019-04-22T14:57:19.230Z,32.10
2019-04-22T14:59:57.831Z,32.40
2019-04-22T15:02:27.896Z,32.50
2019-04-22T15:04:58.383Z,32.50
2019-04-22T15:07:28.785Z,32.10
2019-04-22T15:09:59.856Z,32.20
2019-04-22T15:12:36.730Z,32.30
2019-04-22T15:15:13.509Z,31.80
2019-04-22T15:17:58.744Z,32.20
2019-04-22T15:20:45.961Z,31.60
2019-04-22T15:23:16.762Z,31.40
2019-04-22T15:25:46.704Z,31.60
2019-04-22T15:28:17.556Z,31.50
2019-04-22T15:30:47.796Z,31.50
2019-04-22T15:33:19.303Z,31.60
2019-04-22T15:35:49.450Z,31.30
2019-04-22T15:38:22.788Z,31.20
2019-04-22T15:40:52.336Z,31.20
2019-04-22T15:43:22.767Z,30.80
2019-04-22T15:45:53.001Z,31.40
2019-04-22T15:48:23.229Z,31.70
2019-04-22T15:50:52.978Z,31.50
2019-04-22T15:53:22.636Z,31.50
2019-04-22T15:55:52.431Z,31.10
2019-04-22T15:58:22.013Z,31.30
2019-04-22T16:01:01.827Z,30.70
2019-04-22T16:03:22.850Z,30.20
2019-04-22T16:05:52.395Z,30.20
2019-04-22T16:08:21.819Z,30.30
2019-04-22T16:10:51.721Z,30.00
2019-04-22T16:13:25.505Z,30.10
2019-04-22T16:15:54.270Z,29.80
2019-04-22T16:18:24.362Z,29.90
2019-04-22T16:20:54.352Z,30.10
2019-04-22T16:23:29.746Z,30.00
2019-04-22T16:26:09.412Z,29.70
2019-04-22T16:28:39.685Z,29.70
2019-04-22T16:31:09.401Z,29.20
2019-04-22T16:33:41.771Z,29.10
2019-04-22T16:36:11.061Z,29.10
2019-04-22T16:38:40.797Z,29.30
2019-04-22T16:41:10.858Z,29.50
2019-04-22T16:43:40.754Z,29.40
2019-04-22T16:46:11.604Z,29.10
2019-04-22T16:48:41.130Z,28.70
2019-04-22T16:51:11.801Z,28.40
2019-04-22T16:53:41.219Z,28.20
2019-04-22T16:56:11.037Z,28.10
2019-04-22T16:58:41.045Z,28.10
2019-04-22T17:01:30.533Z,27.90
2019-04-22T17:04:06.816Z,27.50
2019-04-22T17:06:39.470Z,27.40
2019-04-22T17:09:10.960Z,27.30
2019-04-22T17:11:40.368Z,27.30
2019-04-22T17:14:11.305Z,27.10
2019-04-22T17:16:42.074Z,26.80
2019-04-22T17:19:12.867Z,26.80
2019-04-22T17:21:43.673Z,26.80
2019-04-22T17:24:13.999Z,26.50
2019-04-22T17:26:44.229Z,26.00
2019-04-22T17:29:14.484Z,25.80
2019-04-22T17:31:50.921Z,25.70
2019-04-22T17:34:15.797Z,25.80
2019-04-22T17:36:46.247Z,25.60
2019-04-22T17:39:30.628Z,25.60
2019-04-22T17:42:02.384Z,25.40
2019-04-22T17:44:53.215Z,25.10
2019-04-22T17:47:35.842Z,25.00
2019-04-22T17:50:14.615Z,24.90
2019-04-22T17:52:42.589Z,24.70
2019-04-22T17:55:12.829Z,24.50
2019-04-22T17:57:45.229Z,24.30
2019-04-22T18:00:14.385Z,24.10
2019-04-22T18:02:45.650Z,23.90
2019-04-22T18:05:04.248Z,23.80
2019-04-22T18:07:48.868Z,23.50
2019-04-22T18:10:36.089Z,23.30
2019-04-22T18:12:59.938Z,23.10
2019-04-22T18:15:27.337Z,22.60
2019-04-22T18:18:00.996Z,22.40
2019-04-22T18:20:25.416Z,22.30
2019-04-22T18:22:52.197Z,22.30
2019-04-22T18:25:22.347Z,22.10
2019-04-22T18:28:15.079Z,22.20
2019-04-22T18:30:25.468Z,21.90
2019-04-22T18:33:08.671Z,21.60
2019-04-22T18:35:38.030Z,21.40
2019-04-22T18:38:15.427Z,21.30
2019-04-22T18:40:38.490Z,21.10
2019-04-22T18:43:10.261Z,21.00
2019-04-22T18:45:52.727Z,20.80
2019-04-22T18:48:06.504Z,20.60
2019-04-22T18:51:00.216Z,20.60
2019-04-22T18:53:50.851Z,20.30
2019-04-22T18:56:20.591Z,20.40
2019-04-22T18:58:40.223Z,20.30
2019-04-22T19:00:59.657Z,20.20
2019-04-22T19:03:32.200Z,20.00
2019-04-22T19:06:30.564Z,19.80
2019-04-22T19:08:55.505Z,19.60
2019-04-22T19:11:20.562Z,19.50
2019-04-22T19:14:02.316Z,19.40
2019-04-22T19:16:38.252Z,19.30
2019-04-22T19:19:29.781Z,19.30
2019-04-22T19:21:48.000Z,19.10
2019-04-22T19:24:17.274Z,19.10
2019-04-22T19:26:55.969Z,18.90
2019-04-22T19:29:25.929Z,18.80
2019-04-22T19:31:56.465Z,18.70
2019-04-22T19:34:25.530Z,18.60
2019-04-22T19:36:56.200Z,18.60
2019-04-22T19:39:27.296Z,18.50
2019-04-22T19:42:12.456Z,18.50
2019-04-22T19:44:36.281Z,18.50
2019-04-22T19:47:21.184Z,18.40
2019-04-22T19:49:38.459Z,18.20
2019-04-22T19:52:11.314Z,18.20
2019-04-22T19:54:38.743Z,18.10
2019-04-22T19:57:03.219Z,17.90
2019-04-22T19:59:45.316Z,17.80
2019-04-22T20:02:57.490Z,17.80
2019-04-22T20:05:45.170Z,17.90
2019-04-22T20:08:14.656Z,17.70
2019-04-22T20:10:45.917Z,17.70
2019-04-22T20:13:20.709Z,17.70
2019-04-22T20:15:42.792Z,17.70
2019-04-22T20:18:33.366Z,17.70
2019-04-22T20:20:54.045Z,17.70
2019-04-22T20:23:14.400Z,17.50
2019-04-22T20:25:49.691Z,17.40
2019-04-22T20:28:27.355Z,17.60
2019-04-22T20:30:55.479Z,17.60
2019-04-22T20:33:29.247Z,17.50
2019-04-22T20:35:58.640Z,17.40
2019-04-22T20:38:27.703Z,17.30
2019-04-22T20:40:55.024Z,17.20
2019-04-22T20:43:38.585Z,17.20
2019-04-22T20:46:05.952Z,17.30
2019-04-22T20:48:30.647Z,17.30
2019-04-22T20:51:04.057Z,17.30
2019-04-22T20:53:47.973Z,17.20
2019-04-22T20:56:15.741Z,17.10
2019-04-22T20:58:48.055Z,17.20
2019-04-22T21:01:10.393Z,17.10
2019-04-22T21:03:39.225Z,17.00
2019-04-22T21:06:14.902Z,16.80
2019-04-22T21:08:56.556Z,16.90
2019-04-22T21:11:19.433Z,16.80
2019-04-22T21:13:53.179Z,16.70
2019-04-22T21:16:32.919Z,16.70
2019-04-22T21:19:02.801Z,16.60
2019-04-22T21:21:37.739Z,16.70
2019-04-22T21:23:56.931Z,16.70
2019-04-22T21:26:33.586Z,16.60
2019-04-22T21:29:04.358Z,16.60
2019-04-22T21:31:38.635Z,16.50
2019-04-22T21:34:08.010Z,16.50
2019-04-22T21:36:41.624Z,16.30
2019-04-22T21:39:06.855Z,16.30
2019-04-22T21:41:44.564Z,16.30
2019-04-22T21:44:14.331Z,16.10
2019-04-22T21:46:53.768Z,16.00
2019-04-22T21:49:21.408Z,16.00
2019-04-22T21:51:49.344Z,16.00
2019-04-22T21:54:21.536Z,15.90
2019-04-22T21:57:07.544Z,15.80
2019-04-22T21:59:29.888Z,15.80
2019-04-22T22:02:11.833Z,15.90
2019-04-22T22:04:30.374Z,15.90
2019-04-22T22:06:55.601Z,15.80
2019-04-22T22:09:37.938Z,15.50
2019-04-22T22:12:02.411Z,15.40
2019-04-22T22:14:42.563Z,15.50
2019-04-22T22:17:07.655Z,15.50
2019-04-22T22:19:43.862Z,15.50
2019-04-22T22:22:30.159Z,15.50
2019-04-22T22:24:43.896Z,15.50
2019-04-22T22:27:22.088Z,15.50
2019-04-22T22:29:59.214Z,15.50
2019-04-22T22:32:16.779Z,15.40
2019-04-22T22:34:50.804Z,15.50
2019-04-22T22:37:12.114Z,15.40
2019-04-22T22:39:39.166Z,15.40
2019-04-22T22:42:01.914Z,15.40
2019-04-22T22:44:38.041Z,15.20
2019-04-22T22:47:20.369Z,15.00
2019-04-22T22:50:01.168Z,15.00
2019-04-22T22:52:45.069Z,15.00
2019-04-22T22:54:57.600Z,15.00
2019-04-22T22:57:33.825Z,15.00
2019-04-22T22:59:55.173Z,15.00
2019-04-22T23:02:28.084Z,15.00
2019-04-22T23:05:05.781Z,15.00
2019-04-22T23:07:37.531Z,14.90
2019-04-22T23:10:01.638Z,14.90
2019-04-22T23:12:46.552Z,14.80
2019-04-22T23:15:06.310Z,14.70
2019-04-22T23:17:22.474Z,14.60
2019-04-22T23:19:52.110Z,14.50
2019-04-22T23:22:30.023Z,14.40
2019-04-22T23:25:17.319Z,14.40
2019-04-22T23:27:56.908Z,14.50
2019-04-22T23:30:46.371Z,14.50
2019-04-22T23:33:26.485Z,14.50
2019-04-22T23:36:23.628Z,14.40
2019-04-22T23:39:09.790Z,14.30
2019-04-22T23:44:13.528Z,14.40
2019-04-22T23:46:42.627Z,14.20
2019-04-22T23:49:15.516Z,14.30
2019-04-22T23:51:55.173Z,14.30
2019-04-22T23:54:23.999Z,14.40
2019-04-22T23:56:46.961Z,14.40
2019-04-22T23:59:38.309Z,14.30
